DEPPU EDFZ-EDRY
Flight info
| Callsign | DEPPU |
|---|---|
| Flight time | 0h 19m |
| Altitude | 3500 |
| Route | VFR |
| Aircraft | BE36/L-S/S |
Departure
| Time | 2026-04-28 12:30 |
|---|---|
| Airport | Mainz-Finthen Airfield (EDFZ) |
Arrival
| Time | 2026-04-28 12:50 |
|---|---|
| Airport | Speyer Airfield (EDRY) |
| Time | Latitude | Longitude | Altitude | Speed | Heading |
|---|---|---|---|---|---|
| 2026-04-28 12:22 | 49.97139 | 8.14877 | 755 ft | 0 kts | 330° |
| 2026-04-28 12:25 | 49.97144 | 8.14877 | 754 ft | 2 kts | 26° |
| 2026-04-28 12:25 | 49.97121 | 8.14926 | 755 ft | 10 kts | 177° |
| 2026-04-28 12:26 | 49.97073 | 8.14848 | 757 ft | 11 kts | 254° |
| 2026-04-28 12:26 | 49.97051 | 8.14729 | 759 ft | 13 kts | 255° |
| 2026-04-28 12:26 | 49.97026 | 8.14580 | 761 ft | 16 kts | 256° |
| 2026-04-28 12:26 | 49.96995 | 8.14406 | 763 ft | 18 kts | 254° |
| 2026-04-28 12:27 | 49.96960 | 8.14210 | 770 ft | 20 kts | 256° |
| 2026-04-28 12:27 | 49.96873 | 8.14091 | 772 ft | 21 kts | 165° |
| 2026-04-28 12:27 | 49.96839 | 8.14104 | 773 ft | 0 kts | 168° |
| 2026-04-28 12:29 | 49.96851 | 8.14419 | 768 ft | 55 kts | 71° |
| 2026-04-28 12:29 | 49.96960 | 8.15190 | 834 ft | 85 kts | 77° |
| 2026-04-28 12:29 | 49.96981 | 8.16177 | 1015 ft | 104 kts | 108° |
| 2026-04-28 12:30 | 49.96341 | 8.16832 | 1352 ft | 122 kts | 164° |
| 2026-04-28 12:30 | 49.95428 | 8.16690 | 1430 ft | 140 kts | 188° |
| 2026-04-28 12:30 | 49.94463 | 8.16370 | 1544 ft | 141 kts | 185° |
| 2026-04-28 12:30 | 49.93517 | 8.16146 | 1741 ft | 137 kts | 176° |
| 2026-04-28 12:31 | 49.92595 | 8.16181 | 1938 ft | 132 kts | 164° |
| 2026-04-28 12:31 | 49.91706 | 8.16293 | 2225 ft | 126 kts | 170° |
| 2026-04-28 12:31 | 49.90840 | 8.16248 | 2531 ft | 123 kts | 175° |
| 2026-04-28 12:31 | 49.90012 | 8.16201 | 2858 ft | 114 kts | 165° |
| 2026-04-28 12:32 | 49.89190 | 8.16339 | 2985 ft | 124 kts | 163° |
| 2026-04-28 12:32 | 49.88347 | 8.16689 | 3130 ft | 124 kts | 136° |
| 2026-04-28 12:32 | 49.87678 | 8.17542 | 3236 ft | 127 kts | 133° |
| 2026-04-28 12:32 | 49.87008 | 8.18457 | 3336 ft | 130 kts | 132° |
| 2026-04-28 12:33 | 49.86344 | 8.19434 | 3448 ft | 135 kts | 130° |
| 2026-04-28 12:33 | 49.85649 | 8.20447 | 3489 ft | 142 kts | 131° |
| 2026-04-28 12:33 | 49.84931 | 8.21515 | 3499 ft | 143 kts | 131° |
| 2026-04-28 12:33 | 49.84215 | 8.22626 | 3533 ft | 147 kts | 128° |
| 2026-04-28 12:34 | 49.83494 | 8.23755 | 3515 ft | 148 kts | 130° |
| 2026-04-28 12:34 | 49.82769 | 8.24907 | 3527 ft | 150 kts | 130° |
| 2026-04-28 12:34 | 49.81861 | 8.25723 | 3527 ft | 160 kts | 167° |
| 2026-04-28 12:34 | 49.80734 | 8.25812 | 3493 ft | 162 kts | 175° |
| 2026-04-28 12:35 | 49.79611 | 8.25770 | 3477 ft | 160 kts | 177° |
| 2026-04-28 12:35 | 49.78514 | 8.25688 | 3458 ft | 157 kts | 178° |
| 2026-04-28 12:35 | 49.77427 | 8.25583 | 3454 ft | 156 kts | 178° |
| 2026-04-28 12:35 | 49.76349 | 8.25453 | 3466 ft | 157 kts | 181° |
| 2026-04-28 12:36 | 49.75625 | 8.24387 | 3416 ft | 165 kts | 277° |
| 2026-04-28 12:36 | 49.75441 | 8.22671 | 3454 ft | 165 kts | 239° |
| 2026-04-28 12:36 | 49.74607 | 8.21571 | 3483 ft | 159 kts | 197° |
| 2026-04-28 12:36 | 49.73533 | 8.21253 | 3512 ft | 160 kts | 187° |
| 2026-04-28 12:37 | 49.72433 | 8.21218 | 3546 ft | 159 kts | 163° |
| 2026-04-28 12:37 | 49.71340 | 8.21537 | 3532 ft | 160 kts | 161° |
| 2026-04-28 12:37 | 49.70244 | 8.21906 | 3506 ft | 161 kts | 160° |
| 2026-04-28 12:37 | 49.69155 | 8.22291 | 3486 ft | 159 kts | 160° |
| 2026-04-28 12:38 | 49.68448 | 8.22551 | 3469 ft | 157 kts | 160° |
| 2026-04-28 12:38 | 49.67395 | 8.22953 | 3455 ft | 155 kts | 160° |
| 2026-04-28 12:38 | 49.66351 | 8.23346 | 3471 ft | 155 kts | 161° |
| 2026-04-28 12:38 | 49.64953 | 8.23872 | 3460 ft | 156 kts | 160° |
| 2026-04-28 12:39 | 49.63912 | 8.24274 | 3445 ft | 153 kts | 160° |
| 2026-04-28 12:39 | 49.63215 | 8.24536 | 3445 ft | 152 kts | 160° |
| 2026-04-28 12:39 | 49.62177 | 8.24916 | 3473 ft | 154 kts | 160° |
| 2026-04-28 12:39 | 49.61148 | 8.25295 | 3446 ft | 153 kts | 160° |
| 2026-04-28 12:40 | 49.60107 | 8.25679 | 3457 ft | 154 kts | 160° |
| 2026-04-28 12:40 | 49.59070 | 8.26074 | 3435 ft | 152 kts | 160° |
| 2026-04-28 12:40 | 49.58034 | 8.26460 | 3459 ft | 155 kts | 161° |
| 2026-04-28 12:40 | 49.56990 | 8.26852 | 3433 ft | 153 kts | 160° |
| 2026-04-28 12:41 | 49.55954 | 8.27247 | 3440 ft | 153 kts | 161° |
| 2026-04-28 12:41 | 49.54921 | 8.27651 | 3441 ft | 154 kts | 160° |
| 2026-04-28 12:41 | 49.53892 | 8.28049 | 3443 ft | 155 kts | 162° |
| 2026-04-28 12:41 | 49.52853 | 8.28453 | 3432 ft | 154 kts | 161° |
| 2026-04-28 12:42 | 49.51819 | 8.28858 | 3429 ft | 153 kts | 161° |
| 2026-04-28 12:42 | 49.50793 | 8.29313 | 3427 ft | 153 kts | 153° |
| 2026-04-28 12:42 | 49.49866 | 8.30113 | 3417 ft | 151 kts | 146° |
| 2026-04-28 12:42 | 49.48951 | 8.30920 | 3424 ft | 152 kts | 148° |
| 2026-04-28 12:43 | 49.48011 | 8.31674 | 3417 ft | 151 kts | 149° |
| 2026-04-28 12:43 | 49.47082 | 8.32406 | 3423 ft | 150 kts | 149° |
| 2026-04-28 12:43 | 49.46141 | 8.33121 | 3441 ft | 150 kts | 150° |
| 2026-04-28 12:43 | 49.45201 | 8.33834 | 3431 ft | 151 kts | 149° |
| 2026-04-28 12:44 | 49.44266 | 8.34555 | 3439 ft | 151 kts | 149° |
| 2026-04-28 12:44 | 49.43319 | 8.35292 | 3439 ft | 153 kts | 149° |
| 2026-04-28 12:44 | 49.42344 | 8.36039 | 3431 ft | 159 kts | 149° |
| 2026-04-28 12:44 | 49.42327 | 8.36052 | 3432 ft | 159 kts | 149° |
| 2026-04-28 12:45 | 49.41491 | 8.36673 | 3419 ft | 157 kts | 150° |
| 2026-04-28 12:45 | 49.40506 | 8.37429 | 3426 ft | 158 kts | 149° |
| 2026-04-28 12:45 | 49.39513 | 8.38191 | 3414 ft | 161 kts | 150° |
| 2026-04-28 12:45 | 49.38514 | 8.38957 | 3337 ft | 163 kts | 149° |
| 2026-04-28 12:46 | 49.37440 | 8.39796 | 2863 ft | 183 kts | 149° |
| 2026-04-28 12:46 | 49.36269 | 8.40685 | 2405 ft | 191 kts | 152° |
| 2026-04-28 12:46 | 49.35125 | 8.41740 | 1950 ft | 190 kts | 138° |
| 2026-04-28 12:46 | 49.34213 | 8.43149 | 1581 ft | 182 kts | 128° |
| 2026-04-28 12:47 | 49.33433 | 8.44603 | 1363 ft | 173 kts | 124° |
| 2026-04-28 12:47 | 49.32659 | 8.45939 | 1315 ft | 162 kts | 136° |
| 2026-04-28 12:47 | 49.31768 | 8.46909 | 1241 ft | 152 kts | 146° |
| 2026-04-28 12:47 | 49.30901 | 8.47677 | 1294 ft | 133 kts | 147° |
| 2026-04-28 12:48 | 49.30102 | 8.48329 | 1184 ft | 126 kts | 145° |
| 2026-04-28 12:48 | 49.29332 | 8.48897 | 1078 ft | 120 kts | 162° |
| 2026-04-28 12:48 | 49.28566 | 8.48649 | 938 ft | 107 kts | 214° |
| 2026-04-28 12:48 | 49.28390 | 8.47662 | 782 ft | 97 kts | 285° |
| 2026-04-28 12:49 | 49.28514 | 8.46623 | 642 ft | 101 kts | 295° |
| 2026-04-28 12:49 | 49.28911 | 8.45851 | 509 ft | 90 kts | 343° |
| 2026-04-28 12:49 | 49.29504 | 8.45570 | 347 ft | 87 kts | 350° |
| 2026-04-28 12:49 | 49.30002 | 8.45369 | 324 ft | 58 kts | 346° |
| 2026-04-28 12:50 | 49.30326 | 8.45237 | 316 ft | 40 kts | 341° |
| 2026-04-28 12:50 | 49.30551 | 8.45141 | 314 ft | 29 kts | 349° |
| 2026-04-28 12:50 | 49.30721 | 8.45079 | 317 ft | 22 kts | 347° |
| 2026-04-28 12:50 | 49.30848 | 8.45068 | 319 ft | 19 kts | 66° |
| 2026-04-28 12:51 | 49.30760 | 8.45178 | 317 ft | 20 kts | 161° |
| 2026-04-28 12:51 | 49.30622 | 8.45242 | 316 ft | 23 kts | 164° |
| 2026-04-28 12:51 | 49.30452 | 8.45313 | 312 ft | 27 kts | 168° |
| 2026-04-28 12:51 | 49.30264 | 8.45383 | 316 ft | 29 kts | 163° |
| 2026-04-28 12:52 | 49.30073 | 8.45464 | 322 ft | 29 kts | 165° |
| 2026-04-28 12:52 | 49.29876 | 8.45542 | 326 ft | 29 kts | 166° |
| 2026-04-28 12:52 | 49.29683 | 8.45622 | 325 ft | 29 kts | 164° |
| 2026-04-28 12:52 | 49.29593 | 8.45564 | 325 ft | 15 kts | 278° |
| 2026-04-28 12:53 | 49.29774 | 8.45464 | 327 ft | 56 kts | 346° |
| 2026-04-28 12:53 | 49.30312 | 8.45220 | 337 ft | 101 kts | 351° |
| 2026-04-28 12:53 | 49.31073 | 8.44936 | 471 ft | 116 kts | 352° |
| 2026-04-28 12:53 | 49.31855 | 8.44803 | 802 ft | 113 kts | 18° |
| 2026-04-28 12:54 | 49.32373 | 8.45574 | 1100 ft | 108 kts | 79° |
| 2026-04-28 12:54 | 49.32243 | 8.46755 | 1225 ft | 120 kts | 101° |
| 2026-04-28 12:54 | 49.31751 | 8.47820 | 1214 ft | 137 kts | 145° |
| 2026-04-28 12:54 | 49.30863 | 8.48520 | 1169 ft | 147 kts | 151° |
| 2026-04-28 12:55 | 49.29914 | 8.49178 | 1232 ft | 152 kts | 151° |
| 2026-04-28 12:55 | 49.28925 | 8.49233 | 1268 ft | 147 kts | 212° |
| 2026-04-28 12:55 | 49.28466 | 8.47940 | 1115 ft | 134 kts | 253° |
| 2026-04-28 12:55 | 49.28236 | 8.46637 | 1024 ft | 121 kts | 275° |
| 2026-04-28 12:56 | 49.28655 | 8.45812 | 770 ft | 90 kts | 359° |
| 2026-04-28 12:56 | 49.29249 | 8.45704 | 476 ft | 90 kts | 351° |
| 2026-04-28 12:56 | 49.29819 | 8.45444 | 331 ft | 69 kts | 345° |
| 2026-04-28 12:56 | 49.30237 | 8.45263 | 320 ft | 75 kts | 347° |
| 2026-04-28 12:57 | 49.30856 | 8.45036 | 398 ft | 104 kts | 353° |
| 2026-04-28 12:57 | 49.31605 | 8.44814 | 602 ft | 110 kts | 11° |
| 2026-04-28 12:57 | 49.32257 | 8.45358 | 785 ft | 111 kts | 45° |
| 2026-04-28 12:57 | 49.32571 | 8.46353 | 1025 ft | 105 kts | 90° |
| 2026-04-28 12:58 | 49.32296 | 8.47401 | 1202 ft | 115 kts | 126° |
| 2026-04-28 12:58 | 49.31537 | 8.48017 | 1206 ft | 138 kts | 158° |
| 2026-04-28 12:58 | 49.30557 | 8.48498 | 1193 ft | 155 kts | 158° |
| 2026-04-28 12:58 | 49.29518 | 8.49019 | 1291 ft | 159 kts | 158° |
| 2026-04-28 12:59 | 49.28433 | 8.48748 | 1383 ft | 168 kts | 213° |
| 2026-04-28 12:59 | 49.28007 | 8.47215 | 1221 ft | 163 kts | 283° |
| 2026-04-28 12:59 | 49.28622 | 8.45947 | 872 ft | 144 kts | 339° |
| 2026-04-28 12:59 | 49.29563 | 8.45546 | 364 ft | 145 kts | 352° |
| 2026-04-28 13:00 | 49.30601 | 8.45110 | 323 ft | 160 kts | 349° |
| 2026-04-28 13:00 | 49.31485 | 8.44993 | 1206 ft | 91 kts | 20° |
| 2026-04-28 13:00 | 49.32028 | 8.45606 | 1327 ft | 109 kts | 66° |
| 2026-04-28 13:00 | 49.31946 | 8.46827 | 1421 ft | 135 kts | 117° |
| 2026-04-28 13:01 | 49.31114 | 8.47799 | 1261 ft | 168 kts | 147° |
| 2026-04-28 13:01 | 49.30038 | 8.48682 | 1060 ft | 183 kts | 151° |
| 2026-04-28 13:01 | 49.28826 | 8.48816 | 1044 ft | 177 kts | 205° |
| 2026-04-28 13:01 | 49.28247 | 8.47499 | 978 ft | 139 kts | 279° |
| 2026-04-28 13:02 | 49.28595 | 8.46255 | 779 ft | 125 kts | 309° |
| 2026-04-28 13:02 | 49.29217 | 8.45662 | 475 ft | 98 kts | 347° |
| 2026-04-28 13:02 | 49.29780 | 8.45465 | 328 ft | 64 kts | 341° |
| 2026-04-28 13:02 | 49.30133 | 8.45319 | 319 ft | 46 kts | 343° |
| 2026-04-28 13:03 | 49.30412 | 8.45201 | 314 ft | 34 kts | 347° |
| 2026-04-28 13:03 | 49.30475 | 8.45278 | 312 ft | 13 kts | 93° |
| 2026-04-28 13:03 | 49.30392 | 8.45335 | 315 ft | 16 kts | 165° |
| 2026-04-28 13:03 | 49.30337 | 8.45419 | 316 ft | 0 kts | 82° |